createdAt,value
2023-03-16T00:04:09.550Z,100314.84
2023-03-16T00:09:13.514Z,100319.63
2023-03-16T00:14:16.411Z,100322.05
2023-03-16T00:19:19.730Z,100325.31
2023-03-16T00:24:25.293Z,100322.77
2023-03-16T00:29:28.808Z,100322.98
2023-03-16T00:34:34.991Z,100320.05
2023-03-16T00:39:37.900Z,100319.37
2023-03-16T00:44:44.323Z,100320.06
2023-03-16T00:49:47.178Z,100323.31
2023-03-16T00:54:53.051Z,100321.11
2023-03-16T00:59:56.615Z,100312.39
2023-03-16T01:04:59.679Z,100309.83
2023-03-16T01:10:03.923Z,100314.95
2023-03-16T01:15:07.725Z,100321.81
2023-03-16T01:20:12.571Z,100321.67
2023-03-16T01:25:15.594Z,100319.98
2023-03-16T01:30:18.914Z,100323.23
2023-03-16T01:35:22.100Z,100327.83
2023-03-16T01:40:25.271Z,100327.98
2023-03-16T01:45:56.637Z,100328.65
2023-03-16T01:50:59.817Z,100324.90
2023-03-16T01:56:08.660Z,100333.60
2023-03-16T02:01:14.244Z,100336.65
2023-03-16T02:06:19.524Z,100336.29
2023-03-16T02:11:23.723Z,100331.15
2023-03-16T02:16:26.933Z,100330.31
2023-03-16T02:21:39.296Z,100337.00
2023-03-16T02:27:00.277Z,100341.27
2023-03-16T02:32:03.401Z,100343.32
2023-03-16T02:37:07.523Z,100349.63
2023-03-16T02:42:15.690Z,100351.50
2023-03-16T02:47:44.882Z,100353.38
2023-03-16T02:52:48.697Z,100360.18
2023-03-16T02:57:52.521Z,100369.55
2023-03-16T03:02:55.440Z,100372.98
2023-03-16T03:07:58.332Z,100376.06
2023-03-16T03:13:01.343Z,100379.33
2023-03-16T03:18:04.751Z,100378.81
2023-03-16T03:23:07.982Z,100383.06
2023-03-16T03:28:11.698Z,100384.59
2023-03-16T03:33:14.595Z,100380.16
2023-03-16T03:38:18.112Z,100385.27
2023-03-16T03:43:22.062Z,100388.50
2023-03-16T03:48:25.864Z,100396.70
2023-03-16T03:53:28.768Z,100400.97
2023-03-16T03:58:31.676Z,100401.31
2023-03-16T04:03:34.880Z,100399.95
2023-03-16T04:08:37.996Z,100404.73
2023-03-16T04:13:41.404Z,100406.42
2023-03-16T04:18:45.645Z,100405.56
2023-03-16T04:23:50.056Z,100405.57
2023-03-16T04:28:52.986Z,100403.88
2023-03-16T04:33:55.892Z,100414.80
2023-03-16T04:38:59.325Z,100415.14
2023-03-16T04:44:02.313Z,100415.48
2023-03-16T04:49:05.627Z,100416.66
2023-03-16T04:54:08.636Z,100410.86
2023-03-16T04:59:12.161Z,100412.71
2023-03-16T05:04:19.105Z,100416.62
2023-03-16T05:09:22.772Z,100414.17
2023-03-16T05:14:25.683Z,100414.41
2023-03-16T05:19:28.509Z,100418.29
2023-03-16T05:24:31.387Z,100413.64
2023-03-16T05:29:34.592Z,100415.45
2023-03-16T05:34:37.804Z,100421.68
2023-03-16T05:39:40.710Z,100426.40
2023-03-16T05:44:45.056Z,100429.08
2023-03-16T05:49:48.571Z,100428.38
2023-03-16T05:54:51.574Z,100431.46
2023-03-16T05:59:54.782Z,100434.00
2023-03-16T06:04:59.643Z,100446.77
2023-03-16T06:10:03.053Z,100446.81
2023-03-16T06:15:08.002Z,100450.06
2023-03-16T06:20:13.575Z,100454.23
2023-03-16T06:25:17.220Z,100453.59
2023-03-16T06:30:20.506Z,100453.80
2023-03-16T06:35:23.715Z,100461.95
2023-03-16T06:40:27.055Z,100468.77
2023-03-16T06:45:30.141Z,100474.10
2023-03-16T06:50:33.146Z,100473.34
2023-03-16T06:55:36.052Z,100470.95
2023-03-16T07:00:38.955Z,100472.52
2023-03-16T07:05:41.855Z,100473.30
2023-03-16T07:10:44.860Z,100486.46
2023-03-16T07:15:52.364Z,100494.50
2023-03-16T07:20:55.278Z,100493.68
2023-03-16T07:25:58.287Z,100500.48
2023-03-16T07:31:04.187Z,100503.13
2023-03-16T07:36:10.790Z,100508.71
2023-03-16T07:41:14.276Z,100515.23
2023-03-16T07:46:17.837Z,100522.30
2023-03-16T07:51:21.610Z,100527.98
2023-03-16T07:56:24.924Z,100531.98
2023-03-16T08:01:28.404Z,100532.59
2023-03-16T08:06:31.452Z,100529.80
2023-03-16T08:11:34.864Z,100532.04
2023-03-16T08:16:37.879Z,100530.14
2023-03-16T08:21:57.683Z,100533.42
2023-03-16T08:27:03.985Z,100534.10
2023-03-16T08:32:07.579Z,100542.30
2023-03-16T08:37:11.810Z,100550.40
2023-03-16T08:42:17.069Z,100555.55
2023-03-16T08:47:20.583Z,100560.40
2023-03-16T08:52:23.872Z,100567.67
2023-03-16T08:57:27.419Z,100570.29
2023-03-16T09:02:30.318Z,100573.04
2023-03-16T09:07:35.790Z,100577.29
2023-03-16T09:12:41.097Z,100575.56
2023-03-16T09:17:45.361Z,100580.61
2023-03-16T09:22:48.372Z,100573.84
2023-03-16T09:27:51.388Z,100573.60
2023-03-16T09:32:54.766Z,100584.58
2023-03-16T09:38:06.864Z,100587.79
2023-03-16T09:43:29.591Z,100582.70
2023-03-16T09:48:36.102Z,100582.80
2023-03-16T09:53:39.834Z,100591.25
2023-03-16T09:58:43.423Z,100590.31
2023-03-16T10:04:10.830Z,100594.30
2023-03-16T10:09:26.399Z,100594.17
2023-03-16T10:14:41.706Z,100597.10
2023-03-16T10:19:58.193Z,100599.20
2023-03-16T10:25:07.742Z,100599.83
2023-03-16T10:30:36.339Z,100596.06
2023-03-16T10:35:58.441Z,100591.69
2023-03-16T10:41:01.402Z,100590.50
2023-03-16T10:46:04.485Z,100595.33
2023-03-16T10:51:12.681Z,100593.45
2023-03-16T10:56:25.429Z,100594.44
2023-03-16T11:01:29.600Z,100589.61
2023-03-16T11:06:33.665Z,100584.89
2023-03-16T11:11:37.070Z,100584.14
2023-03-16T11:16:48.419Z,100591.45
2023-03-16T11:22:13.250Z,100593.14
2023-03-16T11:27:30.451Z,100592.77
2023-03-16T11:32:37.597Z,100601.70
2023-03-16T11:37:54.412Z,100603.30
2023-03-16T11:43:06.743Z,100600.82
2023-03-16T11:48:33.826Z,100597.84
2023-03-16T11:53:59.003Z,100594.48
2023-03-16T11:59:16.702Z,100601.48
2023-03-16T12:04:27.695Z,100609.26
2023-03-16T12:09:47.860Z,100610.98
2023-03-16T12:15:08.326Z,100615.22
2023-03-16T12:20:24.900Z,100610.62
2023-03-16T12:25:33.142Z,100609.02
2023-03-16T12:31:03.837Z,100616.93
2023-03-16T12:36:25.116Z,100622.11
2023-03-16T12:41:37.337Z,100627.44
2023-03-16T12:46:59.335Z,100630.64
2023-03-16T12:52:10.100Z,100634.15
2023-03-16T12:57:17.558Z,100638.61
2023-03-16T13:02:26.475Z,100639.96
2023-03-16T13:07:32.010Z,100643.25
2023-03-16T13:12:38.094Z,100651.14
2023-03-16T13:17:41.266Z,100651.17
2023-03-16T13:22:50.212Z,100653.45
2023-03-16T13:27:56.632Z,100655.11
2023-03-16T13:33:17.900Z,100664.59
2023-03-16T13:38:25.894Z,100665.77
2023-03-16T13:43:33.201Z,100663.27
2023-03-16T13:48:38.678Z,100663.80
2023-03-16T13:53:43.434Z,100672.39
2023-03-16T13:58:49.272Z,100675.66
2023-03-16T14:03:52.567Z,100674.89
2023-03-16T14:09:06.053Z,100678.83
2023-03-16T14:14:18.263Z,100682.54
2023-03-16T14:19:32.412Z,100684.79
2023-03-16T14:24:38.987Z,100690.64
2023-03-16T14:29:43.674Z,100687.23
2023-03-16T14:34:51.391Z,100687.83
2023-03-16T14:40:20.817Z,100691.02
2023-03-16T14:45:28.535Z,100684.89
2023-03-16T14:50:32.513Z,100683.89
2023-03-16T14:55:36.493Z,100689.95
2023-03-16T15:00:52.344Z,100694.54
2023-03-16T15:05:56.227Z,100693.11
2023-03-16T15:11:02.679Z,100693.37
2023-03-16T15:16:07.311Z,100692.05
2023-03-16T15:21:17.335Z,100690.70
2023-03-16T15:26:26.376Z,100692.02
2023-03-16T15:31:29.328Z,100700.72
2023-03-16T15:36:32.283Z,100701.95
2023-03-16T15:41:46.695Z,100702.95
2023-03-16T15:46:50.240Z,100706.86
2023-03-16T15:51:53.203Z,100713.91
2023-03-16T15:56:56.297Z,100723.45
2023-03-16T16:01:59.404Z,100724.10
2023-03-16T16:07:03.008Z,100723.83
2023-03-16T16:12:06.752Z,100729.08
2023-03-16T16:17:36.548Z,100732.94
2023-03-16T16:22:47.419Z,100745.48
2023-03-16T16:27:51.510Z,100751.60
2023-03-16T16:32:56.895Z,100753.89
2023-03-16T16:38:00.312Z,100762.13
2023-03-16T16:43:06.339Z,100768.05
2023-03-16T16:48:32.448Z,100772.91
2023-03-16T16:53:36.042Z,100775.39
2023-03-16T16:58:39.629Z,100785.13
2023-03-16T17:03:42.634Z,100787.63
2023-03-16T17:08:46.931Z,100794.77
2023-03-16T17:13:52.821Z,100797.14
2023-03-16T17:18:56.080Z,100801.10
2023-03-16T17:24:00.525Z,100808.52
2023-03-16T17:29:11.006Z,100810.98
2023-03-16T17:34:29.289Z,100811.58
2023-03-16T17:39:34.833Z,100815.04
2023-03-16T17:44:41.325Z,100813.84
2023-03-16T17:49:45.455Z,100819.77
2023-03-16T17:54:49.856Z,100821.70
2023-03-16T17:59:53.617Z,100823.83
2023-03-16T18:04:56.342Z,100833.80
2023-03-16T18:09:59.412Z,100841.86
2023-03-16T18:15:03.244Z,100844.89
2023-03-16T18:20:21.207Z,100848.97
2023-03-16T18:25:32.211Z,100853.10
2023-03-16T18:30:38.277Z,100862.27
2023-03-16T18:35:43.492Z,100864.38
2023-03-16T18:40:47.507Z,100871.65
2023-03-16T18:45:51.100Z,100872.86
2023-03-16T18:50:55.130Z,100879.34
2023-03-16T18:55:58.223Z,100883.58
2023-03-16T19:01:01.761Z,100889.83
2023-03-16T19:06:06.284Z,100894.02
2023-03-16T19:11:11.530Z,100904.86
2023-03-16T19:16:17.878Z,100903.17
2023-03-16T19:21:25.109Z,100909.55
2023-03-16T19:26:28.708Z,100915.09
2023-03-16T19:31:32.759Z,100916.05
2023-03-16T19:36:35.534Z,100927.31
2023-03-16T19:41:38.487Z,100923.66
2023-03-16T19:46:42.043Z,100922.95
2023-03-16T19:51:44.832Z,100925.66
2023-03-16T19:56:48.124Z,100931.30
2023-03-16T20:01:50.889Z,100931.10
2023-03-16T20:06:54.238Z,100932.95
2023-03-16T20:11:57.041Z,100934.64
2023-03-16T20:17:00.412Z,100934.19
2023-03-16T20:22:03.326Z,100932.10
2023-03-16T20:27:11.826Z,100930.77
2023-03-16T20:32:24.611Z,100932.52
2023-03-16T20:37:30.959Z,100932.55
2023-03-16T20:42:35.177Z,100935.81
2023-03-16T20:47:37.961Z,100930.45
2023-03-16T20:52:40.752Z,100932.58
2023-03-16T20:57:44.696Z,100931.94
2023-03-16T21:02:47.550Z,100930.60
2023-03-16T21:07:52.945Z,100936.95
2023-03-16T21:12:57.674Z,100943.15
2023-03-16T21:18:07.409Z,100947.13
2023-03-16T21:23:14.770Z,100950.92
2023-03-16T21:28:19.945Z,100949.91
2023-03-16T21:33:32.113Z,100946.00
2023-03-16T21:38:34.941Z,100948.40
2023-03-16T21:43:40.063Z,100951.14
2023-03-16T21:48:43.426Z,100950.63
2023-03-16T21:53:48.925Z,100956.61
2023-03-16T21:58:53.717Z,100954.04
2023-03-16T22:04:01.753Z,100954.04
2023-03-16T22:09:04.787Z,100958.30
2023-03-16T22:14:10.054Z,100963.08
2023-03-16T22:19:17.896Z,100968.52
2023-03-16T22:24:24.525Z,100969.86
2023-03-16T22:29:30.155Z,100965.39
2023-03-16T22:34:44.680Z,100962.65
2023-03-16T22:39:48.329Z,100971.69
2023-03-16T22:44:51.199Z,100977.52
2023-03-16T22:49:54.106Z,100981.27
2023-03-16T22:54:59.123Z,100984.83
2023-03-16T23:00:11.280Z,100989.76
2023-03-16T23:05:19.438Z,101001.16
2023-03-16T23:10:25.701Z,101011.21
2023-03-16T23:15:30.769Z,101012.40
2023-03-16T23:20:33.764Z,101007.77
2023-03-16T23:25:37.067Z,101004.50
2023-03-16T23:30:40.080Z,101000.52
2023-03-16T23:35:46.760Z,100994.86
2023-03-16T23:40:49.925Z,100989.91
2023-03-16T23:45:52.882Z,100984.92
2023-03-16T23:50:56.398Z,100984.90
2023-03-16T23:56:00.132Z,100988.77
